Time;durP1;ratioP1;P1;durP2;ratioP2;P2;SDS_P1;SDS_P2;PMS_P1;PMS_P2;Temp;Humidity;BMP_temperature;BMP_pressure;BME280_temperature;BME280_humidity;BME280_pressure;Samples;Min_cycle;Max_cycle;Signal;HPM_P1;HPM_P2
2023/03/28 00:01:29;;;;;;;15.25;5.93;;;;;;;;;;12806416;19;20366;-67
2023/03/28 00:13:02;;;;;;;11.60;4.55;;;;;;;;;;12803719;19;20514;-67
2023/03/28 00:17:58;;;;;;;11.02;4.70;;;;;;;;;;12796990;19;20799;-67
2023/03/28 00:22:48;;;;;;;18.13;5.80;;;;;;;;;;12805385;19;20039;-67
2023/03/28 00:39:05;;;;;;;36.25;10.68;;;;;;;;;;12803002;19;20506;-68
2023/03/28 00:43:49;;;;;;;23.80;6.55;;;;;;;;;;12800893;19;20097;-67
2023/03/28 00:49:11;;;;;;;29.27;9.23;;;;;;;;;;12796813;19;20683;-67
2023/03/28 00:54:08;;;;;;;12.40;5.68;;;;;;;;;;12800150;19;20314;-67
2023/03/28 00:59:50;;;;;;;17.90;6.72;;;;;;;;;;12796369;19;20299;-67
2023/03/28 01:04:19;;;;;;;15.75;7.45;;;;;;;;;;12806153;19;20010;-66
2023/03/28 01:09:27;;;;;;;28.23;8.60;;;;;;;;;;12807467;19;20013;-67
2023/03/28 01:14:55;;;;;;;18.38;6.57;;;;;;;;;;12795810;19;20933;-68
2023/03/28 01:25:46;;;;;;;21.00;6.90;;;;;;;;;;12798835;19;20014;-66
2023/03/28 01:31:18;;;;;;;14.80;5.93;;;;;;;;;;12801784;19;20394;-68
2023/03/28 01:48:04;;;;;;;12.93;5.10;;;;;;;;;;12803553;19;20010;-68
2023/03/28 01:53:25;;;;;;;17.02;6.53;;;;;;;;;;12804724;19;20357;-67
2023/03/28 01:59:25;;;;;;;19.02;6.55;;;;;;;;;;12804228;19;20583;-68
2023/03/28 02:04:19;;;;;;;18.05;6.15;;;;;;;;;;12796068;19;21014;-68
2023/03/28 02:08:49;;;;;;;19.10;7.22;;;;;;;;;;12806425;19;20433;-68
2023/03/28 02:13:28;;;;;;;18.13;7.53;;;;;;;;;;12802374;19;20322;-68
2023/03/28 02:19:10;;;;;;;26.13;7.75;;;;;;;;;;12804828;19;20375;-67
2023/03/28 02:24:28;;;;;;;17.30;6.00;;;;;;;;;;12807308;19;20038;-68
2023/03/28 02:29:27;;;;;;;18.38;6.35;;;;;;;;;;12804559;19;20638;-68
2023/03/28 02:34:11;;;;;;;18.70;6.40;;;;;;;;;;12800380;19;20297;-68
2023/03/28 02:50:56;;;;;;;26.13;9.25;;;;;;;;;;12801828;19;20614;-68
2023/03/28 02:55:46;;;;;;;19.08;8.35;;;;;;;;;;12801285;19;20464;-68
2023/03/28 03:01:05;;;;;;;14.23;6.38;;;;;;;;;;12805767;19;20852;-68
2023/03/28 03:06:18;;;;;;;15.75;6.53;;;;;;;;;;12789851;19;20426;-68
2023/03/28 03:11:12;;;;;;;15.18;6.22;;;;;;;;;;12796194;19;20455;-67
2023/03/28 03:15:45;;;;;;;15.30;5.78;;;;;;;;;;12791383;19;20441;-68
2023/03/28 03:26:52;;;;;;;8.85;4.35;;;;;;;;;;12789995;19;20698;-67
2023/03/28 03:32:06;;;;;;;8.77;4.40;;;;;;;;;;12792104;19;20539;-68
2023/03/28 03:36:45;;;;;;;6.57;3.63;;;;;;;;;;12799740;19;20456;-67
2023/03/28 03:46:21;;;;;;;7.80;3.75;;;;;;;;;;12807469;19;20086;-67
2023/03/28 03:51:54;;;;;;;7.07;3.88;;;;;;;;;;12805394;19;20435;-68
2023/03/28 03:56:44;;;;;;;5.25;3.30;;;;;;;;;;12803392;19;20011;-67
2023/03/28 04:01:12;;;;;;;5.78;3.15;;;;;;;;;;12805550;19;20019;-68
2023/03/28 04:07:01;;;;;;;6.75;2.85;;;;;;;;;;12798451;19;20439;-68
2023/03/28 04:11:49;;;;;;;5.20;2.75;;;;;;;;;;12799152;19;20819;-68
2023/03/28 04:16:56;;;;;;;5.63;2.70;;;;;;;;;;12812332;19;20477;-68
2023/03/28 04:21:47;;;;;;;4.43;2.92;;;;;;;;;;12805612;19;20441;-68
2023/03/28 04:27:24;;;;;;;6.65;3.00;;;;;;;;;;12811265;19;20370;-67
2023/03/28 04:32:52;;;;;;;6.78;3.28;;;;;;;;;;12807117;19;20423;-67
2023/03/28 04:38:01;;;;;;;5.28;2.72;;;;;;;;;;12801976;19;20433;-67
2023/03/28 04:42:54;;;;;;;4.00;3.10;;;;;;;;;;12808752;19;20704;-68
2023/03/28 04:47:48;;;;;;;5.95;3.13;;;;;;;;;;12811713;19;20464;-67
2023/03/28 04:53:09;;;;;;;3.33;2.42;;;;;;;;;;12799525;19;20506;-67
2023/03/28 04:58:35;;;;;;;3.75;2.38;;;;;;;;;;12795424;19;20442;-67
2023/03/28 05:03:09;;;;;;;5.20;2.75;;;;;;;;;;12805970;19;20393;-67
2023/03/28 05:13:46;;;;;;;5.53;2.97;;;;;;;;;;12806305;19;20314;-67
2023/03/28 05:18:18;;;;;;;5.28;2.72;;;;;;;;;;12805985;19;20471;-67
2023/03/28 05:22:46;;;;;;;6.75;2.92;;;;;;;;;;12808172;19;20441;-67
2023/03/28 05:33:49;;;;;;;4.63;2.58;;;;;;;;;;12807572;19;20010;-67
2023/03/28 05:38:20;;;;;;;3.42;2.28;;;;;;;;;;12800572;19;20007;-67
2023/03/28 05:42:56;;;;;;;3.67;2.60;;;;;;;;;;12803269;19;20349;-68
2023/03/28 05:48:20;;;;;;;4.57;2.55;;;;;;;;;;12810467;19;20465;-66
2023/03/28 05:54:01;;;;;;;4.30;2.45;;;;;;;;;;12805317;19;20448;-68
2023/03/28 05:58:44;;;;;;;5.88;2.72;;;;;;;;;;12799000;19;20302;-67
2023/03/28 06:03:48;;;;;;;3.55;2.22;;;;;;;;;;12799967;19;20410;-66
2023/03/28 06:08:23;;;;;;;8.10;3.45;;;;;;;;;;12806221;19;20362;-67
2023/03/28 06:18:47;;;;;;;4.13;1.85;;;;;;;;;;12800702;19;20010;-66
2023/03/28 06:23:46;;;;;;;3.80;2.20;;;;;;;;;;12807516;19;20449;-67
2023/03/28 06:28:25;;;;;;;4.57;2.22;;;;;;;;;;12804487;19;20818;-66
2023/03/28 06:33:46;;;;;;;2.83;1.70;;;;;;;;;;12794239;19;20477;-67
2023/03/28 06:39:03;;;;;;;5.15;2.20;;;;;;;;;;12790961;19;20762;-69
2023/03/28 06:43:56;;;;;;;6.88;2.90;;;;;;;;;;12791012;19;20314;-66
2023/03/28 07:06:10;;;;;;;2.50;1.83;;;;;;;;;;12792828;19;20428;-66
2023/03/28 07:11:51;;;;;;;4.65;1.88;;;;;;;;;;12800152;19;20452;-67
2023/03/28 07:17:15;;;;;;;2.42;1.65;;;;;;;;;;12801656;19;20007;-66
2023/03/28 07:22:22;;;;;;;3.05;1.63;;;;;;;;;;12801196;19;20351;-68
2023/03/28 07:27:11;;;;;;;3.30;1.40;;;;;;;;;;12801023;19;20465;-68
2023/03/28 07:38:15;;;;;;;5.57;1.08;;;;;;;;;;12791006;19;20538;-67
2023/03/28 07:48:23;;;;;;;3.67;2.00;;;;;;;;;;12797235;19;20044;-67
2023/03/28 07:52:47;;;;;;;3.87;1.80;;;;;;;;;;12797894;19;20540;-67
2023/03/28 07:57:50;;;;;;;3.08;1.20;;;;;;;;;;12802669;19;20703;-67
2023/03/28 08:03:49;;;;;;;2.30;0.98;;;;;;;;;;12793232;19;20436;-68
2023/03/28 08:08:53;;;;;;;2.13;1.30;;;;;;;;;;12790481;19;20479;-68
2023/03/28 08:13:26;;;;;;;1.35;1.00;;;;;;;;;;12796425;19;20330;-68
2023/03/28 08:24:14;;;;;;;1.85;1.10;;;;;;;;;;12802350;19;20300;-68
2023/03/28 08:29:45;;;;;;;2.08;1.45;;;;;;;;;;12807794;19;20282;-68
2023/03/28 08:34:28;;;;;;;4.88;2.30;;;;;;;;;;12807512;19;20375;-68
2023/03/28 08:51:16;;;;;;;9.20;2.10;;;;;;;;;;12799620;19;20195;-68
2023/03/28 08:55:46;;;;;;;6.40;1.13;;;;;;;;;;12799633;19;20311;-67
2023/03/28 09:07:45;;;;;;;1.35;1.08;;;;;;;;;;12808646;19;20479;-66
2023/03/28 09:13:15;;;;;;;4.32;1.85;;;;;;;;;;12801472;19;20421;-66
2023/03/28 09:18:21;;;;;;;5.85;2.75;;;;;;;;;;12803448;19;20329;-67
2023/03/28 09:30:08;;;;;;;2.55;1.05;;;;;;;;;;12803399;19;20520;-66
2023/03/28 09:36:13;;;;;;;8.85;1.38;;;;;;;;;;12804226;19;20496;-66
2023/03/28 09:40:46;;;;;;;;;;;;;;;;;;12808025;19;20505;-67
2023/03/28 09:46:03;;;;;;;6.72;2.05;;;;;;;;;;12802383;19;20341;-67
2023/03/28 09:51:47;;;;;;;5.22;2.55;;;;;;;;;;12797453;19;20039;-66
2023/03/28 09:56:45;;;;;;;4.60;1.23;;;;;;;;;;12795112;19;20396;-66
2023/03/28 10:01:50;;;;;;;1.73;1.10;;;;;;;;;;12802049;19;20021;-65
2023/03/28 10:24:46;;;;;;;2.30;1.20;;;;;;;;;;12800199;19;20470;-66
2023/03/28 10:29:12;;;;;;;1.95;1.10;;;;;;;;;;12802397;19;20433;-67
2023/03/28 10:39:48;;;;;;;2.55;1.15;;;;;;;;;;12799369;19;20449;-66
2023/03/28 10:44:59;;;;;;;3.13;1.80;;;;;;;;;;12802695;19;20595;-66
2023/03/28 10:56:13;;;;;;;2.55;1.27;;;;;;;;;;12791143;19;20333;-66
2023/03/28 11:02:23;;;;;;;1.95;1.05;;;;;;;;;;12790705;19;20405;-67
2023/03/28 11:07:26;;;;;;;3.45;1.05;;;;;;;;;;12790241;19;20754;-66
2023/03/28 11:13:17;;;;;;;3.63;1.45;;;;;;;;;;12790818;19;20446;-66
2023/03/28 11:18:54;;;;;;;1.08;0.63;;;;;;;;;;12792746;19;20010;-67
2023/03/28 11:24:51;;;;;;;2.80;1.73;;;;;;;;;;12791938;19;20507;-67
2023/03/28 11:29:59;;;;;;;4.75;1.77;;;;;;;;;;12799707;19;20441;-67
2023/03/28 11:34:43;;;;;;;3.22;2.00;;;;;;;;;;12801454;19;20468;-67
2023/03/28 11:40:05;;;;;;;12.43;8.45;;;;;;;;;;12801266;19;20367;-67
2023/03/28 11:50:55;;;;;;;3.08;1.70;;;;;;;;;;12788017;19;20441;-67
2023/03/28 11:55:27;;;;;;;2.13;1.27;;;;;;;;;;12794505;19;20379;-66
2023/03/28 12:01:18;;;;;;;2.08;1.35;;;;;;;;;;12806285;19;20471;-66
2023/03/28 12:07:23;;;;;;;2.85;1.38;;;;;;;;;;12808019;19;20042;-67
2023/03/28 12:12:05;;;;;;;5.18;2.42;;;;;;;;;;12805372;19;20011;-66
2023/03/28 12:23:19;;;;;;;6.28;1.90;;;;;;;;;;12802183;19;20306;-66
2023/03/28 12:28:45;;;;;;;4.75;2.00;;;;;;;;;;12807425;19;20089;-67
2023/03/28 12:33:24;;;;;;;1.90;1.45;;;;;;;;;;12811053;19;20511;-67
2023/03/28 12:50:47;;;;;;;11.38;3.35;;;;;;;;;;12806074;19;20295;-67
2023/03/28 12:55:25;;;;;;;9.10;3.72;;;;;;;;;;12808105;19;20313;-66
2023/03/28 13:07:18;;;;;;;1.95;0.88;;;;;;;;;;12797821;19;20317;-66
2023/03/28 13:12:44;;;;;;;7.40;2.47;;;;;;;;;;12811209;19;20459;-66
2023/03/28 13:17:22;;;;;;;2.38;1.98;;;;;;;;;;12805516;19;20325;-66
2023/03/28 13:22:59;;;;;;;5.85;2.10;;;;;;;;;;12807677;19;20645;-66
2023/03/28 13:28:16;;;;;;;2.75;1.48;;;;;;;;;;12814628;19;20780;-66
2023/03/28 13:33:45;;;;;;;9.18;3.53;;;;;;;;;;12823324;19;20433;-65
2023/03/28 13:38:22;;;;;;;6.85;3.78;;;;;;;;;;12814068;19;20607;-65
2023/03/28 13:43:21;;;;;;;3.95;2.38;;;;;;;;;;12816094;19;20443;-66
2023/03/28 13:54:13;;;;;;;6.70;2.75;;;;;;;;;;12821909;19;20302;-65
2023/03/28 13:58:52;;;;;;;1.90;1.40;;;;;;;;;;12822912;19;20026;-65
2023/03/28 14:04:26;;;;;;;2.83;1.70;;;;;;;;;;12823061;19;20367;-65
2023/03/28 14:13:47;;;;;;;5.10;1.83;;;;;;;;;;12815388;19;20011;-65
2023/03/28 14:18:59;;;;;;;2.53;1.50;;;;;;;;;;12814015;19;20025;-66
2023/03/28 14:24:45;;;;;;;2.17;1.10;;;;;;;;;;12814238;19;20414;-65
2023/03/28 14:30:15;;;;;;;4.63;2.05;;;;;;;;;;12814235;19;20295;-65
2023/03/28 14:41:53;;;;;;;3.80;1.98;;;;;;;;;;12719373;19;2005112;-66
2023/03/28 14:46:51;;;;;;;3.78;1.73;;;;;;;;;;12820246;19;20510;-67
2023/03/28 14:51:52;;;;;;;9.38;1.80;;;;;;;;;;12818704;19;20474;-66
2023/03/28 15:03:01;;;;;;;4.15;2.40;;;;;;;;;;12816272;19;20395;-66
2023/03/28 15:07:56;;;;;;;3.65;1.90;;;;;;;;;;12819078;19;20002;-66
2023/03/28 15:19:30;;;;;;;4.03;2.25;;;;;;;;;;12713723;19;2005105;-66
2023/03/28 15:24:11;;;;;;;10.85;3.75;;;;;;;;;;12818585;19;20099;-66
2023/03/28 15:35:06;;;;;;;3.67;1.92;;;;;;;;;;12821463;19;20430;-65
2023/03/28 15:45:21;;;;;;;3.72;2.00;;;;;;;;;;12822353;19;20637;-65
2023/03/28 15:56:07;;;;;;;3.20;1.38;;;;;;;;;;12820213;19;20025;-66
2023/03/28 16:00:54;;;;;;;3.53;1.80;;;;;;;;;;12821794;19;20506;-66
2023/03/28 16:16:45;;;;;;;1.85;1.35;;;;;;;;;;12819525;19;20420;-67
2023/03/28 16:21:18;;;;;;;2.97;1.15;;;;;;;;;;12818099;19;20292;-66
2023/03/28 16:38:03;;;;;;;4.43;2.05;;;;;;;;;;12823804;19;20041;-67
2023/03/28 16:43:00;;;;;;;4.25;2.10;;;;;;;;;;12824722;19;20326;-67
2023/03/28 16:54:01;;;;;;;2.50;1.52;;;;;;;;;;12805478;19;20355;-67
2023/03/28 16:59:24;;;;;;;4.68;1.50;;;;;;;;;;12818531;19;20359;-67
2023/03/28 17:04:09;;;;;;;9.10;3.10;;;;;;;;;;12823654;19;20881;-66
2023/03/28 17:14:44;;;;;;;8.88;3.50;;;;;;;;;;12819815;19;20394;-66
2023/03/28 17:19:23;;;;;;;10.77;4.38;;;;;;;;;;12825628;19;20645;-68
2023/03/28 17:29:52;;;;;;;7.22;3.88;;;;;;;;;;12715257;19;2004806;-67
2023/03/28 17:34:19;;;;;;;11.13;5.75;;;;;;;;;;12815786;19;20314;-67
2023/03/28 17:40:02;;;;;;;10.00;4.65;;;;;;;;;;12819860;19;20538;-67
2023/03/28 17:45:18;;;;;;;15.23;6.18;;;;;;;;;;12713508;19;2004880;-67
2023/03/28 17:50:24;;;;;;;11.68;6.38;;;;;;;;;;12813238;19;20343;-67
2023/03/28 18:01:52;;;;;;;6.10;3.15;;;;;;;;;;12714337;19;2004873;-67
2023/03/28 18:06:48;;;;;;;10.93;4.88;;;;;;;;;;12817323;19;20399;-68
2023/03/28 18:11:21;;;;;;;14.00;6.10;;;;;;;;;;12821988;19;20327;-67
2023/03/28 18:22:05;;;;;;;12.15;4.13;;;;;;;;;;12822921;19;20443;-67
2023/03/28 18:27:00;;;;;;;11.90;3.90;;;;;;;;;;12816281;19;20372;-67
2023/03/28 18:31:53;;;;;;;10.48;3.50;;;;;;;;;;12814398;19;20043;-67
2023/03/28 18:37:19;;;;;;;9.07;3.83;;;;;;;;;;12813862;19;20511;-67
2023/03/28 18:42:20;;;;;;;17.75;5.25;;;;;;;;;;12811408;19;20010;-67
2023/03/28 18:46:53;;;;;;;32.10;8.20;;;;;;;;;;12813661;19;20434;-67
2023/03/28 18:51:19;;;;;;;43.60;11.18;;;;;;;;;;12813767;19;20395;-68
2023/03/28 18:57:15;;;;;;;41.00;11.90;;;;;;;;;;12800690;19;20393;-67
2023/03/28 19:02:43;;;;;;;41.63;19.90;;;;;;;;;;12801050;19;20458;-67
2023/03/28 19:07:51;;;;;;;20.60;8.60;;;;;;;;;;12817319;19;20433;-67
2023/03/28 19:18:56;;;;;;;14.88;5.32;;;;;;;;;;12711534;19;2005037;-68
2023/03/28 19:24:24;;;;;;;8.48;4.05;;;;;;;;;;12810469;19;20337;-68
2023/03/28 19:29:15;;;;;;;13.10;6.25;;;;;;;;;;12812367;19;20545;-67
2023/03/28 19:40:52;;;;;;;16.85;6.90;;;;;;;;;;12709208;19;2004996;-68
2023/03/28 19:46:28;;;;;;;16.77;6.93;;;;;;;;;;12709279;19;2004781;-68
2023/03/28 19:58:06;;;;;;;23.15;8.85;;;;;;;;;;12806628;19;20433;-67
2023/03/28 20:02:43;;;;;;;16.88;7.78;;;;;;;;;;12812660;19;20123;-67
2023/03/28 20:07:39;;;;;;;20.90;8.65;;;;;;;;;;12817364;19;20383;-66
2023/03/28 20:12:56;;;;;;;13.88;6.22;;;;;;;;;;12810066;19;20017;-66
2023/03/28 20:17:46;;;;;;;15.65;5.53;;;;;;;;;;12815242;19;20351;-67
2023/03/28 20:27:38;;;;;;;16.40;6.57;;;;;;;;;;12822067;19;20396;-67
2023/03/28 20:38:19;;;;;;;12.13;6.05;;;;;;;;;;12817944;19;20579;-70
2023/03/28 20:43:18;;;;;;;9.80;4.25;;;;;;;;;;12821037;19;20006;-66
2023/03/28 20:48:16;;;;;;;10.00;3.85;;;;;;;;;;12821871;19;20481;-67
2023/03/28 20:53:27;;;;;;;10.35;4.55;;;;;;;;;;12825824;19;20448;-67
2023/03/28 20:58:02;;;;;;;12.50;4.97;;;;;;;;;;12825979;19;20060;-67
2023/03/28 21:03:14;;;;;;;11.20;4.93;;;;;;;;;;12826667;19;20367;-66
2023/03/28 21:08:45;;;;;;;13.68;5.72;;;;;;;;;;12825087;19;20429;-67
2023/03/28 21:13:46;;;;;;;16.40;5.88;;;;;;;;;;12818260;19;20803;-67
2023/03/28 21:18:48;;;;;;;22.13;7.38;;;;;;;;;;12818956;19;20122;-67
2023/03/28 21:23:52;;;;;;;19.80;6.25;;;;;;;;;;12819994;19;20011;-66
2023/03/28 21:28:27;;;;;;;13.35;5.30;;;;;;;;;;12818062;19;20606;-67
2023/03/28 21:33:44;;;;;;;14.25;5.65;;;;;;;;;;12825261;19;20103;-67
2023/03/28 21:45:01;;;;;;;20.23;8.47;;;;;;;;;;12821307;19;20398;-67
2023/03/28 21:49:48;;;;;;;27.25;12.75;;;;;;;;;;12815518;19;20454;-68
2023/03/28 21:59:45;;;;;;;20.30;9.88;;;;;;;;;;12814042;19;20390;-68
2023/03/28 22:04:24;;;;;;;21.75;10.82;;;;;;;;;;12810234;19;20494;-67
2023/03/28 22:09:12;;;;;;;20.52;11.43;;;;;;;;;;12813446;19;20541;-67
2023/03/28 22:25:48;;;;;;;25.02;12.15;;;;;;;;;;12813761;19;20026;-67
2023/03/28 22:31:19;;;;;;;23.52;12.85;;;;;;;;;;12816575;19;20327;-67
2023/03/28 22:36:24;;;;;;;16.92;8.00;;;;;;;;;;12812836;19;20556;-67
2023/03/28 22:41:44;;;;;;;14.55;6.55;;;;;;;;;;12810453;19;20383;-67
2023/03/28 22:46:50;;;;;;;14.77;5.25;;;;;;;;;;12813201;19;20426;-68
2023/03/28 22:51:54;;;;;;;12.18;4.28;;;;;;;;;;12812905;19;20371;-67
2023/03/28 22:57:00;;;;;;;13.23;4.45;;;;;;;;;;12812579;19;20311;-67
2023/03/28 23:01:57;;;;;;;10.63;4.47;;;;;;;;;;12812611;19;20442;-67
2023/03/28 23:12:00;;;;;;;;;;;;;;;;;;12820672;19;20305;-67
2023/03/28 23:17:17;;;;;;;10.25;3.40;;;;;;;;;;12819154;19;20291;-68
2023/03/28 23:21:46;;;;;;;9.35;3.67;;;;;;;;;;12817478;19;20497;-68
2023/03/28 23:33:06;;;;;;;12.65;4.05;;;;;;;;;;12817712;19;20359;-68
2023/03/28 23:37:57;;;;;;;12.90;4.95;;;;;;;;;;12814993;19;20017;-68
2023/03/28 23:42:42;;;;;;;11.02;4.53;;;;;;;;;;12812442;19;20929;-68
2023/03/28 23:47:30;;;;;;;10.73;4.88;;;;;;;;;;12812659;19;20433;-67
